sensor_id;sensor_type;location;lat;lon;timestamp;temperature;humidity
52656;SHT85;35474;51.032;6.998;2023-11-21T00:02:21;9.02;93.27
52656;SHT85;35474;51.032;6.998;2023-11-21T00:04:48;9.01;93.26
52656;SHT85;35474;51.032;6.998;2023-11-21T00:07:14;8.98;93.25
52656;SHT85;35474;51.032;6.998;2023-11-21T00:09:41;8.91;93.38
52656;SHT85;35474;51.032;6.998;2023-11-21T00:12:08;8.85;93.42
52656;SHT85;35474;51.032;6.998;2023-11-21T00:14:37;8.88;93.39
52656;SHT85;35474;51.032;6.998;2023-11-21T00:17:04;8.87;93.56
52656;SHT85;35474;51.032;6.998;2023-11-21T00:19:32;8.88;93.57
52656;SHT85;35474;51.032;6.998;2023-11-21T00:21:59;8.85;93.37
52656;SHT85;35474;51.032;6.998;2023-11-21T00:24:26;8.74;93.04
52656;SHT85;35474;51.032;6.998;2023-11-21T00:26:52;8.56;93.13
52656;SHT85;35474;51.032;6.998;2023-11-21T00:29:19;8.56;93.40
52656;SHT85;35474;51.032;6.998;2023-11-21T00:31:46;8.46;93.67
52656;SHT85;35474;51.032;6.998;2023-11-21T00:34:15;8.34;93.95
52656;SHT85;35474;51.032;6.998;2023-11-21T00:36:44;8.22;93.89
52656;SHT85;35474;51.032;6.998;2023-11-21T00:39:10;8.15;94.04
52656;SHT85;35474;51.032;6.998;2023-11-21T00:41:38;8.02;94.07
52656;SHT85;35474;51.032;6.998;2023-11-21T00:44:04;7.98;94.03
52656;SHT85;35474;51.032;6.998;2023-11-21T00:46:32;7.77;93.92
52656;SHT85;35474;51.032;6.998;2023-11-21T00:48:59;7.74;93.76
52656;SHT85;35474;51.032;6.998;2023-11-21T00:51:26;7.81;93.65
52656;SHT85;35474;51.032;6.998;2023-11-21T00:53:52;7.64;93.65
52656;SHT85;35474;51.032;6.998;2023-11-21T00:56:19;7.67;94.20
52656;SHT85;35474;51.032;6.998;2023-11-21T01:00:34;7.68;94.55
52656;SHT85;35474;51.032;6.998;2023-11-21T01:03:01;7.64;94.48
52656;SHT85;35474;51.032;6.998;2023-11-21T01:05:28;7.63;94.55
52656;SHT85;35474;51.032;6.998;2023-11-21T01:07:55;7.71;94.79
52656;SHT85;35474;51.032;6.998;2023-11-21T01:10:22;7.82;95.14
52656;SHT85;35474;51.032;6.998;2023-11-21T01:12:48;8.05;95.45
52656;SHT85;35474;51.032;6.998;2023-11-21T01:15:15;8.06;95.60
52656;SHT85;35474;51.032;6.998;2023-11-21T01:17:41;8.28;95.72
52656;SHT85;35474;51.032;6.998;2023-11-21T01:20:09;8.43;95.79
52656;SHT85;35474;51.032;6.998;2023-11-21T01:22:40;8.34;95.66
52656;SHT85;35474;51.032;6.998;2023-11-21T01:25:07;8.25;95.67
52656;SHT85;35474;51.032;6.998;2023-11-21T01:27:34;8.37;95.72
52656;SHT85;35474;51.032;6.998;2023-11-21T01:30:03;8.64;95.35
52656;SHT85;35474;51.032;6.998;2023-11-21T01:32:30;8.47;95.41
52656;SHT85;35474;51.032;6.998;2023-11-21T01:34:57;8.68;95.47
52656;SHT85;35474;51.032;6.998;2023-11-21T01:37:24;8.67;95.12
52656;SHT85;35474;51.032;6.998;2023-11-21T01:39:54;8.32;94.75
52656;SHT85;35474;51.032;6.998;2023-11-21T01:42:24;8.16;94.83
52656;SHT85;35474;51.032;6.998;2023-11-21T01:44:50;8.12;94.72
52656;SHT85;35474;51.032;6.998;2023-11-21T01:47:17;8.10;94.94
52656;SHT85;35474;51.032;6.998;2023-11-21T01:49:44;8.15;95.30
52656;SHT85;35474;51.032;6.998;2023-11-21T01:52:12;8.15;95.27
52656;SHT85;35474;51.032;6.998;2023-11-21T01:54:39;8.12;95.08
52656;SHT85;35474;51.032;6.998;2023-11-21T01:57:07;8.09;95.01
52656;SHT85;35474;51.032;6.998;2023-11-21T01:59:34;8.10;95.12
52656;SHT85;35474;51.032;6.998;2023-11-21T02:02:06;8.16;95.05
52656;SHT85;35474;51.032;6.998;2023-11-21T02:04:33;8.16;94.98
52656;SHT85;35474;51.032;6.998;2023-11-21T02:07:00;8.50;94.98
52656;SHT85;35474;51.032;6.998;2023-11-21T02:09:27;8.28;94.67
52656;SHT85;35474;51.032;6.998;2023-11-21T02:11:56;8.18;94.61
52656;SHT85;35474;51.032;6.998;2023-11-21T02:14:27;8.21;94.75
52656;SHT85;35474;51.032;6.998;2023-11-21T02:16:54;8.23;94.74
52656;SHT85;35474;51.032;6.998;2023-11-21T02:19:23;8.19;94.74
52656;SHT85;35474;51.032;6.998;2023-11-21T02:21:52;8.22;94.72
52656;SHT85;35474;51.032;6.998;2023-11-21T02:24:19;8.36;94.83
52656;SHT85;35474;51.032;6.998;2023-11-21T02:26:49;8.42;94.79
52656;SHT85;35474;51.032;6.998;2023-11-21T02:29:19;8.73;94.61
52656;SHT85;35474;51.032;6.998;2023-11-21T02:31:54;8.53;94.18
52656;SHT85;35474;51.032;6.998;2023-11-21T02:34:22;8.43;93.96
52656;SHT85;35474;51.032;6.998;2023-11-21T02:36:49;8.46;93.98
52656;SHT85;35474;51.032;6.998;2023-11-21T02:39:15;8.75;93.75
52656;SHT85;35474;51.032;6.998;2023-11-21T02:41:48;8.67;93.76
52656;SHT85;35474;51.032;6.998;2023-11-21T02:44:15;8.67;93.71
52656;SHT85;35474;51.032;6.998;2023-11-21T02:46:42;8.74;93.61
52656;SHT85;35474;51.032;6.998;2023-11-21T02:49:08;8.82;93.24
52656;SHT85;35474;51.032;6.998;2023-11-21T02:51:38;9.07;92.87
52656;SHT85;35474;51.032;6.998;2023-11-21T02:54:05;9.05;92.87
52656;SHT85;35474;51.032;6.998;2023-11-21T02:56:34;9.25;92.74
52656;SHT85;35474;51.032;6.998;2023-11-21T02:59:00;9.32;91.82
52656;SHT85;35474;51.032;6.998;2023-11-21T03:01:27;9.33;91.60
52656;SHT85;35474;51.032;6.998;2023-11-21T03:03:54;9.11;91.94
52656;SHT85;35474;51.032;6.998;2023-11-21T03:06:22;8.97;92.22
52656;SHT85;35474;51.032;6.998;2023-11-21T03:08:49;8.85;92.38
52656;SHT85;35474;51.032;6.998;2023-11-21T03:11:16;8.85;92.50
52656;SHT85;35474;51.032;6.998;2023-11-21T03:13:43;8.78;92.55
52656;SHT85;35474;51.032;6.998;2023-11-21T03:16:09;8.75;92.66
52656;SHT85;35474;51.032;6.998;2023-11-21T03:18:37;8.70;92.84
52656;SHT85;35474;51.032;6.998;2023-11-21T03:21:04;8.70;92.84
52656;SHT85;35474;51.032;6.998;2023-11-21T03:23:31;8.68;93.01
52656;SHT85;35474;51.032;6.998;2023-11-21T03:25:58;8.65;93.09
52656;SHT85;35474;51.032;6.998;2023-11-21T03:28:26;8.59;93.27
52656;SHT85;35474;51.032;6.998;2023-11-21T03:30:56;8.63;93.42
52656;SHT85;35474;51.032;6.998;2023-11-21T03:33:23;8.65;93.41
52656;SHT85;35474;51.032;6.998;2023-11-21T03:35:49;8.68;93.16
52656;SHT85;35474;51.032;6.998;2023-11-21T03:38:16;8.65;93.24
52656;SHT85;35474;51.032;6.998;2023-11-21T03:40:42;8.65;93.28
52656;SHT85;35474;51.032;6.998;2023-11-21T03:43:09;8.65;93.29
52656;SHT85;35474;51.032;6.998;2023-11-21T03:45:35;8.63;93.37
52656;SHT85;35474;51.032;6.998;2023-11-21T03:48:02;8.63;93.29
52656;SHT85;35474;51.032;6.998;2023-11-21T03:50:29;8.61;93.35
52656;SHT85;35474;51.032;6.998;2023-11-21T03:52:55;8.63;93.49
52656;SHT85;35474;51.032;6.998;2023-11-21T03:55:22;8.64;93.47
52656;SHT85;35474;51.032;6.998;2023-11-21T03:57:51;8.63;93.41
52656;SHT85;35474;51.032;6.998;2023-11-21T04:00:18;8.60;93.40
52656;SHT85;35474;51.032;6.998;2023-11-21T04:02:46;8.73;93.47
52656;SHT85;35474;51.032;6.998;2023-11-21T04:05:14;8.80;93.21
52656;SHT85;35474;51.032;6.998;2023-11-21T04:07:40;8.64;93.40
52656;SHT85;35474;51.032;6.998;2023-11-21T04:10:07;8.59;93.51
52656;SHT85;35474;51.032;6.998;2023-11-21T04:12:39;8.63;93.57
52656;SHT85;35474;51.032;6.998;2023-11-21T04:15:06;8.78;93.13
52656;SHT85;35474;51.032;6.998;2023-11-21T04:17:35;8.65;93.49
52656;SHT85;35474;51.032;6.998;2023-11-21T04:20:03;8.59;93.64
52656;SHT85;35474;51.032;6.998;2023-11-21T04:22:44;8.59;93.72
52656;SHT85;35474;51.032;6.998;2023-11-21T04:25:11;8.68;93.64
52656;SHT85;35474;51.032;6.998;2023-11-21T04:27:43;8.80;93.61
52656;SHT85;35474;51.032;6.998;2023-11-21T04:30:11;8.73;93.59
52656;SHT85;35474;51.032;6.998;2023-11-21T04:32:38;8.82;93.49
52656;SHT85;35474;51.032;6.998;2023-11-21T04:35:05;8.81;93.38
52656;SHT85;35474;51.032;6.998;2023-11-21T04:37:32;8.84;93.10
52656;SHT85;35474;51.032;6.998;2023-11-21T04:39:59;8.75;93.21
52656;SHT85;35474;51.032;6.998;2023-11-21T04:42:25;8.70;93.37
52656;SHT85;35474;51.032;6.998;2023-11-21T04:44:52;8.63;93.53
52656;SHT85;35474;51.032;6.998;2023-11-21T04:47:18;8.60;93.69
52656;SHT85;35474;51.032;6.998;2023-11-21T04:49:46;8.65;93.71
52656;SHT85;35474;51.032;6.998;2023-11-21T04:52:16;8.46;93.90
52656;SHT85;35474;51.032;6.998;2023-11-21T04:54:43;8.44;94.23
52656;SHT85;35474;51.032;6.998;2023-11-21T04:57:10;8.46;94.22
52656;SHT85;35474;51.032;6.998;2023-11-21T04:59:37;8.54;94.28
52656;SHT85;35474;51.032;6.998;2023-11-21T05:02:03;8.50;94.25
52656;SHT85;35474;51.032;6.998;2023-11-21T05:04:31;8.52;94.27
52656;SHT85;35474;51.032;6.998;2023-11-21T05:06:58;8.56;94.14
52656;SHT85;35474;51.032;6.998;2023-11-21T05:09:24;8.47;94.20
52656;SHT85;35474;51.032;6.998;2023-11-21T05:11:51;8.50;94.37
52656;SHT85;35474;51.032;6.998;2023-11-21T05:14:19;8.56;94.43
52656;SHT85;35474;51.032;6.998;2023-11-21T05:16:46;8.70;94.13
52656;SHT85;35474;51.032;6.998;2023-11-21T05:19:13;8.78;93.84
52656;SHT85;35474;51.032;6.998;2023-11-21T05:21:42;8.70;93.94
52656;SHT85;35474;51.032;6.998;2023-11-21T05:24:09;8.67;94.00
52656;SHT85;35474;51.032;6.998;2023-11-21T05:26:35;8.87;93.80
52656;SHT85;35474;51.032;6.998;2023-11-21T05:29:02;9.01;93.35
52656;SHT85;35474;51.032;6.998;2023-11-21T05:31:29;8.74;93.58
52656;SHT85;35474;51.032;6.998;2023-11-21T05:33:55;8.67;93.65
52656;SHT85;35474;51.032;6.998;2023-11-21T05:36:22;8.75;93.69
52656;SHT85;35474;51.032;6.998;2023-11-21T05:38:48;8.75;93.38
52656;SHT85;35474;51.032;6.998;2023-11-21T05:41:15;8.75;93.57
52656;SHT85;35474;51.032;6.998;2023-11-21T05:43:41;8.68;93.72
52656;SHT85;35474;51.032;6.998;2023-11-21T05:46:08;8.73;93.57
52656;SHT85;35474;51.032;6.998;2023-11-21T05:48:35;8.71;93.54
52656;SHT85;35474;51.032;6.998;2023-11-21T05:51:06;8.65;93.78
52656;SHT85;35474;51.032;6.998;2023-11-21T05:53:32;8.56;93.87
52656;SHT85;35474;51.032;6.998;2023-11-21T05:55:59;8.70;93.71
52656;SHT85;35474;51.032;6.998;2023-11-21T05:58:26;8.71;93.85
52656;SHT85;35474;51.032;6.998;2023-11-21T06:00:54;8.80;93.96
52656;SHT85;35474;51.032;6.998;2023-11-21T06:03:21;8.78;93.31
52656;SHT85;35474;51.032;6.998;2023-11-21T06:05:48;8.77;93.32
52656;SHT85;35474;51.032;6.998;2023-11-21T06:08:15;8.78;93.68
52656;SHT85;35474;51.032;6.998;2023-11-21T06:10:43;8.89;93.64
52656;SHT85;35474;51.032;6.998;2023-11-21T06:13:10;8.91;93.51
52656;SHT85;35474;51.032;6.998;2023-11-21T06:15:37;8.80;93.42
52656;SHT85;35474;51.032;6.998;2023-11-21T06:18:03;8.74;93.45
52656;SHT85;35474;51.032;6.998;2023-11-21T06:20:30;8.91;92.73
52656;SHT85;35474;51.032;6.998;2023-11-21T06:22:56;8.68;92.94
52656;SHT85;35474;51.032;6.998;2023-11-21T06:25:25;8.61;93.35
52656;SHT85;35474;51.032;6.998;2023-11-21T06:27:52;8.54;93.54
52656;SHT85;35474;51.032;6.998;2023-11-21T06:30:20;8.52;93.55
52656;SHT85;35474;51.032;6.998;2023-11-21T06:32:48;8.47;93.79
52656;SHT85;35474;51.032;6.998;2023-11-21T06:35:15;8.50;94.05
52656;SHT85;35474;51.032;6.998;2023-11-21T06:37:43;8.52;93.93
52656;SHT85;35474;51.032;6.998;2023-11-21T06:40:16;8.57;93.80
52656;SHT85;35474;51.032;6.998;2023-11-21T06:42:47;8.61;93.63
52656;SHT85;35474;51.032;6.998;2023-11-21T06:45:15;8.59;93.80
52656;SHT85;35474;51.032;6.998;2023-11-21T06:47:42;8.56;93.95
52656;SHT85;35474;51.032;6.998;2023-11-21T06:50:09;8.52;94.07
52656;SHT85;35474;51.032;6.998;2023-11-21T06:52:37;8.50;94.04
52656;SHT85;35474;51.032;6.998;2023-11-21T06:55:08;8.44;94.02
52656;SHT85;35474;51.032;6.998;2023-11-21T06:57:36;8.42;94.25
52656;SHT85;35474;51.032;6.998;2023-11-21T07:00:03;8.36;94.41
52656;SHT85;35474;51.032;6.998;2023-11-21T07:02:31;8.32;94.50
52656;SHT85;35474;51.032;6.998;2023-11-21T07:04:58;8.34;94.56
52656;SHT85;35474;51.032;6.998;2023-11-21T07:07:24;8.46;94.77
52656;SHT85;35474;51.032;6.998;2023-11-21T07:09:51;8.57;94.73
52656;SHT85;35474;51.032;6.998;2023-11-21T07:12:18;8.64;94.76
52656;SHT85;35474;51.032;6.998;2023-11-21T07:14:44;8.71;94.60
52656;SHT85;35474;51.032;6.998;2023-11-21T07:17:11;8.77;94.29
52656;SHT85;35474;51.032;6.998;2023-11-21T07:19:38;8.88;94.11
52656;SHT85;35474;51.032;6.998;2023-11-21T07:22:05;8.94;93.83
52656;SHT85;35474;51.032;6.998;2023-11-21T07:24:32;8.95;93.84
52656;SHT85;35474;51.032;6.998;2023-11-21T07:26:58;9.14;93.75
52656;SHT85;35474;51.032;6.998;2023-11-21T07:32:34;9.33;92.89
52656;SHT85;35474;51.032;6.998;2023-11-21T07:35:01;9.16;92.98
52656;SHT85;35474;51.032;6.998;2023-11-21T07:37:28;9.08;92.85
52656;SHT85;35474;51.032;6.998;2023-11-21T07:39:55;9.21;92.64
52656;SHT85;35474;51.032;6.998;2023-11-21T07:42:23;9.32;92.34
52656;SHT85;35474;51.032;6.998;2023-11-21T07:44:50;9.28;92.27
52656;SHT85;35474;51.032;6.998;2023-11-21T07:47:18;9.23;92.47
52656;SHT85;35474;51.032;6.998;2023-11-21T07:49:44;9.23;92.34
52656;SHT85;35474;51.032;6.998;2023-11-21T07:52:13;9.25;92.32
52656;SHT85;35474;51.032;6.998;2023-11-21T07:54:42;9.39;91.92
52656;SHT85;35474;51.032;6.998;2023-11-21T07:57:09;9.46;91.78
52656;SHT85;35474;51.032;6.998;2023-11-21T07:59:40;9.38;91.73
52656;SHT85;35474;51.032;6.998;2023-11-21T08:02:07;9.35;91.81
52656;SHT85;35474;51.032;6.998;2023-11-21T08:04:34;9.32;91.60
52656;SHT85;35474;51.032;6.998;2023-11-21T08:07:02;9.31;91.83
52656;SHT85;35474;51.032;6.998;2023-11-21T08:09:30;9.39;91.56
52656;SHT85;35474;51.032;6.998;2023-11-21T08:11:57;9.36;91.61
52656;SHT85;35474;51.032;6.998;2023-11-21T08:14:27;9.52;91.61
52656;SHT85;35474;51.032;6.998;2023-11-21T08:16:54;9.40;91.53
52656;SHT85;35474;51.032;6.998;2023-11-21T08:19:37;9.29;91.65
52656;SHT85;35474;51.032;6.998;2023-11-21T08:22:04;9.22;91.92
52656;SHT85;35474;51.032;6.998;2023-11-21T08:24:34;9.56;91.70
52656;SHT85;35474;51.032;6.998;2023-11-21T08:27:00;9.40;91.58
52656;SHT85;35474;51.032;6.998;2023-11-21T08:29:27;9.44;91.75
52656;SHT85;35474;51.032;6.998;2023-11-21T08:31:54;9.47;91.68
52656;SHT85;35474;51.032;6.998;2023-11-21T08:34:29;9.46;91.74
52656;SHT85;35474;51.032;6.998;2023-11-21T08:36:57;9.44;91.55
52656;SHT85;35474;51.032;6.998;2023-11-21T08:39:23;9.54;91.54
52656;SHT85;35474;51.032;6.998;2023-11-21T08:41:50;9.69;91.23
52656;SHT85;35474;51.032;6.998;2023-11-21T08:44:19;9.64;91.24
52656;SHT85;35474;51.032;6.998;2023-11-21T08:46:46;9.54;91.14
52656;SHT85;35474;51.032;6.998;2023-11-21T08:49:13;9.36;91.58
52656;SHT85;35474;51.032;6.998;2023-11-21T08:51:41;9.26;91.70
52656;SHT85;35474;51.032;6.998;2023-11-21T08:54:10;9.38;91.74
52656;SHT85;35474;51.032;6.998;2023-11-21T08:56:38;9.49;91.64
52656;SHT85;35474;51.032;6.998;2023-11-21T08:59:10;9.62;91.47
52656;SHT85;35474;51.032;6.998;2023-11-21T09:01:37;9.69;91.14
52656;SHT85;35474;51.032;6.998;2023-11-21T09:04:05;9.80;91.03
52656;SHT85;35474;51.032;6.998;2023-11-21T09:06:32;9.94;90.88
52656;SHT85;35474;51.032;6.998;2023-11-21T09:08:59;9.93;90.54
52656;SHT85;35474;51.032;6.998;2023-11-21T09:11:25;10.15;90.32
52656;SHT85;35474;51.032;6.998;2023-11-21T09:13:57;9.91;90.17
52656;SHT85;35474;51.032;6.998;2023-11-21T09:16:24;9.90;90.06
52656;SHT85;35474;51.032;6.998;2023-11-21T09:18:51;9.87;90.10
52656;SHT85;35474;51.032;6.998;2023-11-21T09:21:18;10.07;90.33
52656;SHT85;35474;51.032;6.998;2023-11-21T09:23:44;9.98;90.07
52656;SHT85;35474;51.032;6.998;2023-11-21T09:26:12;10.07;90.11
52656;SHT85;35474;51.032;6.998;2023-11-21T09:28:38;10.26;89.97
52656;SHT85;35474;51.032;6.998;2023-11-21T09:31:05;10.10;89.69
52656;SHT85;35474;51.032;6.998;2023-11-21T09:33:35;9.95;89.97
52656;SHT85;35474;51.032;6.998;2023-11-21T09:36:01;10.26;89.35
52656;SHT85;35474;51.032;6.998;2023-11-21T09:38:31;10.02;89.91
52656;SHT85;35474;51.032;6.998;2023-11-21T09:40:58;9.77;90.42
52656;SHT85;35474;51.032;6.998;2023-11-21T09:43:25;9.66;90.99
52656;SHT85;35474;51.032;6.998;2023-11-21T09:45:59;9.76;91.12
52656;SHT85;35474;51.032;6.998;2023-11-21T09:48:29;9.86;90.86
52656;SHT85;35474;51.032;6.998;2023-11-21T09:50:57;9.86;90.71
52656;SHT85;35474;51.032;6.998;2023-11-21T09:53:26;9.90;90.75
52656;SHT85;35474;51.032;6.998;2023-11-21T09:55:56;9.87;90.41
52656;SHT85;35474;51.032;6.998;2023-11-21T09:58:22;9.49;91.27
52656;SHT85;35474;51.032;6.998;2023-11-21T10:00:53;9.38;91.93
52656;SHT85;35474;51.032;6.998;2023-11-21T10:03:20;9.54;91.96
52656;SHT85;35474;51.032;6.998;2023-11-21T10:05:48;9.44;92.10
52656;SHT85;35474;51.032;6.998;2023-11-21T10:08:17;9.62;92.06
52656;SHT85;35474;51.032;6.998;2023-11-21T10:10:44;9.67;91.81
52656;SHT85;35474;51.032;6.998;2023-11-21T10:13:13;9.70;91.59
52656;SHT85;35474;51.032;6.998;2023-11-21T10:15:43;9.63;91.20
52656;SHT85;35474;51.032;6.998;2023-11-21T10:18:15;9.71;91.12
52656;SHT85;35474;51.032;6.998;2023-11-21T10:20:43;9.79;90.86
52656;SHT85;35474;51.032;6.998;2023-11-21T10:23:12;9.83;91.01
52656;SHT85;35474;51.032;6.998;2023-11-21T10:25:42;9.95;90.93
52656;SHT85;35474;51.032;6.998;2023-11-21T10:28:09;10.00;90.38
52656;SHT85;35474;51.032;6.998;2023-11-21T10:30:37;9.89;90.51
52656;SHT85;35474;51.032;6.998;2023-11-21T10:33:05;9.95;90.39
52656;SHT85;35474;51.032;6.998;2023-11-21T10:38:08;10.15;89.92
52656;SHT85;35474;51.032;6.998;2023-11-21T10:40:40;10.11;89.64
52656;SHT85;35474;51.032;6.998;2023-11-21T10:43:08;10.20;89.34
52656;SHT85;35474;51.032;6.998;2023-11-21T10:45:42;10.33;89.18
52656;SHT85;35474;51.032;6.998;2023-11-21T10:48:13;10.35;88.78
52656;SHT85;35474;51.032;6.998;2023-11-21T10:50:45;10.26;88.89
52656;SHT85;35474;51.032;6.998;2023-11-21T10:53:12;10.29;88.96
52656;SHT85;35474;51.032;6.998;2023-11-21T10:55:39;10.26;88.93
52656;SHT85;35474;51.032;6.998;2023-11-21T10:58:06;10.26;89.02
52656;SHT85;35474;51.032;6.998;2023-11-21T11:00:33;9.95;89.05
52656;SHT85;35474;51.032;6.998;2023-11-21T11:03:01;10.05;89.61
52656;SHT85;35474;51.032;6.998;2023-11-21T11:05:30;10.21;89.67
52656;SHT85;35474;51.032;6.998;2023-11-21T11:08:05;10.31;89.20
52656;SHT85;35474;51.032;6.998;2023-11-21T11:10:36;10.53;88.79
52656;SHT85;35474;51.032;6.998;2023-11-21T11:13:03;10.44;88.56
52656;SHT85;35474;51.032;6.998;2023-11-21T11:15:35;10.37;88.45
52656;SHT85;35474;51.032;6.998;2023-11-21T11:18:01;10.33;88.50
52656;SHT85;35474;51.032;6.998;2023-11-21T11:20:32;10.22;88.41
52656;SHT85;35474;51.032;6.998;2023-11-21T11:25:30;10.22;88.55
52656;SHT85;35474;51.032;6.998;2023-11-21T11:28:17;10.32;88.75
52656;SHT85;35474;51.032;6.998;2023-11-21T11:33:53;10.41;88.43
52656;SHT85;35474;51.032;6.998;2023-11-21T11:36:26;10.49;88.05
52656;SHT85;35474;51.032;6.998;2023-11-21T11:38:57;10.46;88.08
52656;SHT85;35474;51.032;6.998;2023-11-21T11:41:29;10.59;87.98
52656;SHT85;35474;51.032;6.998;2023-11-21T11:44:02;10.87;87.44
52656;SHT85;35474;51.032;6.998;2023-11-21T11:46:43;10.83;87.17
52656;SHT85;35474;51.032;6.998;2023-11-21T11:49:24;10.94;86.99
52656;SHT85;35474;51.032;6.998;2023-11-21T11:54:59;10.87;87.35
52656;SHT85;35474;51.032;6.998;2023-11-21T11:57:26;10.96;87.03
52656;SHT85;35474;51.032;6.998;2023-11-21T12:02:52;10.81;87.19
52656;SHT85;35474;51.032;6.998;2023-11-21T12:05:23;10.70;87.50
52656;SHT85;35474;51.032;6.998;2023-11-21T12:07:54;10.63;87.61
52656;SHT85;35474;51.032;6.998;2023-11-21T12:10:24;10.50;88.14
52656;SHT85;35474;51.032;6.998;2023-11-21T12:13:01;10.56;88.78
52656;SHT85;35474;51.032;6.998;2023-11-21T12:15:29;10.44;89.07
52656;SHT85;35474;51.032;6.998;2023-11-21T12:17:57;10.37;89.40
52656;SHT85;35474;51.032;6.998;2023-11-21T12:20:25;10.48;89.51
52656;SHT85;35474;51.032;6.998;2023-11-21T12:22:53;10.50;89.28
52656;SHT85;35474;51.032;6.998;2023-11-21T12:25:22;10.39;89.12
52656;SHT85;35474;51.032;6.998;2023-11-21T12:27:53;10.41;89.19
52656;SHT85;35474;51.032;6.998;2023-11-21T12:30:21;10.44;89.25
52656;SHT85;35474;51.032;6.998;2023-11-21T12:32:53;10.44;89.20
52656;SHT85;35474;51.032;6.998;2023-11-21T12:35:22;10.31;89.14
52656;SHT85;35474;51.032;6.998;2023-11-21T12:37:51;10.25;89.40
52656;SHT85;35474;51.032;6.998;2023-11-21T12:40:18;10.17;89.82
52656;SHT85;35474;51.032;6.998;2023-11-21T12:42:46;10.25;89.73
52656;SHT85;35474;51.032;6.998;2023-11-21T12:45:20;10.24;89.66
52656;SHT85;35474;51.032;6.998;2023-11-21T12:47:50;10.29;89.46
52656;SHT85;35474;51.032;6.998;2023-11-21T12:50:19;10.31;89.50
52656;SHT85;35474;51.032;6.998;2023-11-21T12:52:52;10.48;89.51
52656;SHT85;35474;51.032;6.998;2023-11-21T12:55:22;10.48;89.05
52656;SHT85;35474;51.032;6.998;2023-11-21T12:57:53;10.44;88.40
52656;SHT85;35474;51.032;6.998;2023-11-21T13:00:43;10.50;88.32
52656;SHT85;35474;51.032;6.998;2023-11-21T13:03:13;10.58;88.05
52656;SHT85;35474;51.032;6.998;2023-11-21T13:05:52;10.69;87.58
52656;SHT85;35474;51.032;6.998;2023-11-21T13:08:24;10.79;87.10
52656;SHT85;35474;51.032;6.998;2023-11-21T13:10:53;10.83;86.77
52656;SHT85;35474;51.032;6.998;2023-11-21T13:13:25;10.90;86.66
52656;SHT85;35474;51.032;6.998;2023-11-21T13:16:02;10.94;86.30
52656;SHT85;35474;51.032;6.998;2023-11-21T13:18:34;10.86;86.61
52656;SHT85;35474;51.032;6.998;2023-11-21T13:21:02;10.86;86.67
52656;SHT85;35474;51.032;6.998;2023-11-21T13:23:36;10.81;86.79
52656;SHT85;35474;51.032;6.998;2023-11-21T13:26:03;10.72;86.96
52656;SHT85;35474;51.032;6.998;2023-11-21T13:28:33;10.75;87.35
52656;SHT85;35474;51.032;6.998;2023-11-21T13:31:03;10.83;87.20
52656;SHT85;35474;51.032;6.998;2023-11-21T13:33:48;10.84;86.52
52656;SHT85;35474;51.032;6.998;2023-11-21T13:36:23;10.89;86.60
52656;SHT85;35474;51.032;6.998;2023-11-21T13:38:51;10.94;86.22
52656;SHT85;35474;51.032;6.998;2023-11-21T13:41:21;10.81;86.11
52656;SHT85;35474;51.032;6.998;2023-11-21T13:43:58;10.63;85.92
52656;SHT85;35474;51.032;6.998;2023-11-21T13:46:45;10.68;86.56
52656;SHT85;35474;51.032;6.998;2023-11-21T13:49:13;10.59;86.70
52656;SHT85;35474;51.032;6.998;2023-11-21T13:51:41;10.52;86.88
52656;SHT85;35474;51.032;6.998;2023-11-21T13:54:11;10.56;87.04
52656;SHT85;35474;51.032;6.998;2023-11-21T13:56:38;10.70;87.13
52656;SHT85;35474;51.032;6.998;2023-11-21T13:59:06;10.68;86.86
52656;SHT85;35474;51.032;6.998;2023-11-21T14:01:45;10.79;86.86
52656;SHT85;35474;51.032;6.998;2023-11-21T14:04:23;10.77;86.84
52656;SHT85;35474;51.032;6.998;2023-11-21T14:06:59;10.77;86.80
52656;SHT85;35474;51.032;6.998;2023-11-21T14:09:36;10.68;87.20
52656;SHT85;35474;51.032;6.998;2023-11-21T14:12:10;10.68;86.94
52656;SHT85;35474;51.032;6.998;2023-11-21T14:14:41;10.81;86.86
52656;SHT85;35474;51.032;6.998;2023-11-21T14:17:08;10.79;86.84
52656;SHT85;35474;51.032;6.998;2023-11-21T14:19:37;10.68;87.04
52656;SHT85;35474;51.032;6.998;2023-11-21T14:22:10;10.65;87.24
52656;SHT85;35474;51.032;6.998;2023-11-21T14:24:37;10.66;87.36
52656;SHT85;35474;51.032;6.998;2023-11-21T14:27:07;10.62;87.56
52656;SHT85;35474;51.032;6.998;2023-11-21T14:29:35;10.60;87.82
52656;SHT85;35474;51.032;6.998;2023-11-21T14:32:06;10.68;87.86
52656;SHT85;35474;51.032;6.998;2023-11-21T14:34:34;10.66;87.65
52656;SHT85;35474;51.032;6.998;2023-11-21T14:37:01;10.72;87.57
52656;SHT85;35474;51.032;6.998;2023-11-21T14:39:29;10.77;87.71
52656;SHT85;35474;51.032;6.998;2023-11-21T14:41:56;10.79;87.59
52656;SHT85;35474;51.032;6.998;2023-11-21T14:44:24;10.72;87.68
52656;SHT85;35474;51.032;6.998;2023-11-21T14:46:55;10.56;88.36
52656;SHT85;35474;51.032;6.998;2023-11-21T14:49:24;10.59;89.05
52656;SHT85;35474;51.032;6.998;2023-11-21T14:51:53;10.49;89.29
52656;SHT85;35474;51.032;6.998;2023-11-21T14:54:27;10.49;89.46
52656;SHT85;35474;51.032;6.998;2023-11-21T14:57:11;10.42;90.02
52656;SHT85;35474;51.032;6.998;2023-11-21T14:59:48;10.41;90.03
52656;SHT85;35474;51.032;6.998;2023-11-21T15:02:19;10.41;90.17
52656;SHT85;35474;51.032;6.998;2023-11-21T15:05:08;10.37;90.38
52656;SHT85;35474;51.032;6.998;2023-11-21T15:07:41;10.32;90.54
52656;SHT85;35474;51.032;6.998;2023-11-21T15:10:07;10.32;90.69
52656;SHT85;35474;51.032;6.998;2023-11-21T15:12:42;10.25;91.07
52656;SHT85;35474;51.032;6.998;2023-11-21T15:15:10;10.24;91.22
52656;SHT85;35474;51.032;6.998;2023-11-21T15:17:38;10.26;91.35
52656;SHT85;35474;51.032;6.998;2023-11-21T15:20:09;10.26;91.37
52656;SHT85;35474;51.032;6.998;2023-11-21T15:22:38;10.26;91.38
52656;SHT85;35474;51.032;6.998;2023-11-21T15:25:06;10.32;91.58
52656;SHT85;35474;51.032;6.998;2023-11-21T15:27:36;10.31;91.51
52656;SHT85;35474;51.032;6.998;2023-11-21T15:30:03;10.39;91.40
52656;SHT85;35474;51.032;6.998;2023-11-21T15:32:30;10.38;91.38
52656;SHT85;35474;51.032;6.998;2023-11-21T15:34:56;10.46;91.19
52656;SHT85;35474;51.032;6.998;2023-11-21T15:37:23;10.44;91.27
52656;SHT85;35474;51.032;6.998;2023-11-21T15:39:52;10.41;91.22
52656;SHT85;35474;51.032;6.998;2023-11-21T15:42:19;10.33;91.41
52656;SHT85;35474;51.032;6.998;2023-11-21T15:44:46;10.53;91.36
52656;SHT85;35474;51.032;6.998;2023-11-21T15:47:12;10.44;91.19
52656;SHT85;35474;51.032;6.998;2023-11-21T15:49:39;10.59;91.12
52656;SHT85;35474;51.032;6.998;2023-11-21T15:52:06;10.46;91.03
52656;SHT85;35474;51.032;6.998;2023-11-21T15:54:36;10.50;90.43
52656;SHT85;35474;51.032;6.998;2023-11-21T15:57:06;10.52;89.79
52656;SHT85;35474;51.032;6.998;2023-11-21T15:59:34;10.69;89.55
52656;SHT85;35474;51.032;6.998;2023-11-21T16:02:00;10.56;89.17
52656;SHT85;35474;51.032;6.998;2023-11-21T16:04:30;10.63;89.07
52656;SHT85;35474;51.032;6.998;2023-11-21T16:06:57;10.70;88.53
52656;SHT85;35474;51.032;6.998;2023-11-21T16:09:25;10.49;89.03